Les Foulées du Château de Caveirac - 07/01/2017

10 Km 200 (mi-route, mi-chemin)

1079 participants classés


Retour au Sommaire - Signaler une erreur - Faire défiler



<- page précédente

1 2 3 4 5 6 7 8 9 10 11 12 13 14 15 16 17 18 19 20 21 22 /fin /tout

page suivante ->

Pl Do. Nom - Surname Prénom - Name S-Cat /cat Club - Team TEMPS - Time Km/h /sx TPSREEL
651 1130 OLASCUACIA CHRISTOPHE MV2 134 NL 00:57:21 10,7 543 00:56:36
652 256 COULON CÉDRIK MV1 179 Ambrussum Team Nature 00:57:27 10,7 544 00:57:05
653 956 VERDIER MIREILLE FV1 40 COURIR A AIGUES MORTES 00:57:27 10,7 109 00:56:42
654 940 TRULLU CATHERINE FV2 20 SOMMIERES ATHLETISME 00:57:28 10,6 110 00:56:38
655 501 HOSTAUX ERIC MV2 135   00:57:28 10,6 545 00:56:52
656 1180 JAMOT JEAN PAUL MV3 49 NL 00:57:31 10,6 546 00:57:27
657 1164 HOUÏEZ JOSIANE FV2 21 NL 00:57:35 10,6 111 00:57:26
658 868 SCHMITT MICHEL MV3 50 JOGGING CASTELNAU 00:57:35 10,6 547 00:56:42
659 477 GUYOT AURELIE FSE 41   00:57:36 10,6 112 00:56:58
660 154 BROUSSE GERARD MV2 136 JOGGING CASTELNAU 00:57:36 10,6 548 00:56:41
661 354 FACHEAUX JULIEN MSE 139 team amiens 00:57:41 10,6 549 00:57:08
662 254 COSTA PIERRE MV2 137   00:57:42 10,6 550 00:57:29
663 707 NISSARD GUILLAUME MV1 180 COURIR A VAUVERT 00:57:43 10,6 551 00:57:27
664 176 CANOVAS ROBERT MV1 181 Castor Vébron 00:57:44 10,6 552 00:56:51
665 243 COMPTIER MAGALI FSE 42   00:57:45 10,6 113 00:57:29
666 708 NISSARD VINCENT MV1 182   00:57:45 10,6 553 00:57:30
667 739 PELLERANO CHRISTOPHE MV2 138   00:57:49 10,6 554 00:56:58
668 559 LAUGIER INES FV1 41   00:57:50 10,6 114 00:57:38
669 540 LACOSTE ANOUCHKA FSE 43 SUSSARGUES EVASION 00:57:51 10,6 115 00:57:34
670 779 POULY CORINNE FV2 22 CASTRIES RUNNING CLUB 00:57:51 10,6 116 00:57:08
671 157 BRUN CORINNE FV1 42   00:57:52 10,6 117 00:57:35
672 1032 BENAIGES ISABELLE FV1 43 COURIR CLUB AIGUES-MORTES 00:57:53 10,6 118 00:57:00
673 896 SOUSSANA JACQUES MV4 8   00:57:58 10,6 555 00:57:57
674 266 CUCURULLO VANESSA FV1 44   00:58:00 10,6 119 00:57:09
675 546 LAHAYE XAVIER MSE 140 COURIR A VAUVERT 00:58:04 10,5 556 00:57:55
676 283 DEBAILLIE ANNE FV1 45 JOGGING CASTELNAU 00:58:08 10,5 120 00:57:18
677 140 BOURQUIN CHRISTOPHE MV2 139   00:58:09 10,5 557 00:57:21
678 485 HARVOIS GUILLAUME MV1 183   00:58:11 10,5 558 00:57:17
679 66 BARRE REMY MV2 140 3 PILIERS NIMES 00:58:17 10,5 559 00:57:41
680 499 HERNANDEZ NICOLAS MSE 141   00:58:18 10,5 560 00:57:37
681 363 FELIX FREDDY MV3 51 pas de club 00:58:19 10,5 561 00:58:02
682 605 LOURY MARIE FSE 44 MARC 34 00:58:21 10,5 121 00:58:09
683 399 GAMBE STEPHANE MV2 141 LES BIPÈDES DE LA VAUNAGE 00:58:21 10,5 562 00:58:11
684 934 TRAZIC ANNE-MARIE FV3 5 BIPEDES DE LA VAUNAGE 00:58:22 10,5 122 00:58:06
685 272 DA COSTA ANTHONY MV1 184   00:58:24 10,5 563 00:57:53
686 890 SMIL EMMA FSE 45   00:58:25 10,5 123 00:57:49
687 174 CAMUS CAROL FV1 46 FOS OLYMPIQUE CLUB 00:58:26 10,5 124 00:58:03
688 823 ROCHE CHRISTIAN MV3 52 Velo club TCN 00:58:26 10,5 564 00:58:26
689 175 CAMUS CHRISTOPHE MV1 185 FOS OLYMPIQUE CLUB 00:58:26 10,5 565 00:58:05
690 530 JOURDAN ROMAIN MV1 186 Salinelles 00:58:28 10,5 566 00:58:23
691 983 VIVIA LAURENT MV1 187   00:58:28 10,5 567 00:57:43
692 930 TOPORENKO CECILE FSE 46 MC NIMES 00:58:28 10,5 125 00:57:46
693 735 PEIS NADEGE FV1 47 COURIR A VAUVERT 00:58:28 10,5 126 00:58:13
694 359 FAURE CYRIL MV1 188 LES BIBÈDES DE LA VAUNAGE 00:58:29 10,5 568 00:58:05
695 92 BERRUS CORALIE FV2 23 COURIR A VAUVERT 00:58:31 10,5 127 00:58:12
696 263 CRIADO GWLADYS FSE 47   00:58:32 10,5 128 00:58:05
697 1153 RIPETTI STEPHANE MV1 189 NL 00:58:33 10,5 569 00:57:42
698 548 LALANNE GUILLAUME MV1 190 CRC Castries Running Club 00:58:34 10,4 570 00:57:53
699 950 VAN LE WYLLIAMS MV3 53   00:58:36 10,4 571 00:58:36
700 461 GRANON MIREILLE FV1 48 Courir ensemble le Grau du Roi 00:58:36 10,4 129 00:58:09

Aucun commentaires pour le moment, donnez votre avis, vos impressions avant, pendant! et après la course

Déjà membre? Identifiez-vous pour commenter l'épreuve ou créer un compte